sensor_id;sensor_type;location;lat;lon;timestamp;pressure;altitude;pressure_sealevel;temperature;humidity
30744;BME280;17486;46.738;7.622;2022-08-18T00:00:00;94944.56;;;19.84;62.50
30744;BME280;17486;46.738;7.622;2022-08-18T00:02:27;94937.03;;;19.90;62.79
30744;BME280;17486;46.738;7.622;2022-08-18T00:04:54;94941.31;;;20.00;62.24
30744;BME280;17486;46.738;7.622;2022-08-18T00:07:23;94980.44;;;20.34;61.47
30744;BME280;17486;46.738;7.622;2022-08-18T00:09:50;94929.09;;;20.09;61.30
30744;BME280;17486;46.738;7.622;2022-08-18T00:12:21;94916.69;;;20.19;60.68
30744;BME280;17486;46.738;7.622;2022-08-18T00:14:48;94964.28;;;20.57;60.84
30744;BME280;17486;46.738;7.622;2022-08-18T00:17:14;94920.97;;;20.30;60.90
30744;BME280;17486;46.738;7.622;2022-08-18T00:19:40;94903.34;;;20.21;60.79
30744;BME280;17486;46.738;7.622;2022-08-18T00:22:06;94884.06;;;20.11;60.54
30744;BME280;17486;46.738;7.622;2022-08-18T00:24:31;94887.25;;;20.14;60.49
30744;BME280;17486;46.738;7.622;2022-08-18T00:26:57;94949.28;;;20.48;60.62
30744;BME280;17486;46.738;7.622;2022-08-18T00:29:23;94924.81;;;20.46;60.57
30744;BME280;17486;46.738;7.622;2022-08-18T00:31:49;94863.81;;;20.01;60.41
30744;BME280;17486;46.738;7.622;2022-08-18T00:34:15;94927.19;;;20.39;60.24
30744;BME280;17486;46.738;7.622;2022-08-18T00:36:40;94848.00;;;19.92;60.34
30744;BME280;17486;46.738;7.622;2022-08-18T00:39:06;94916.81;;;20.28;60.30
30744;BME280;17486;46.738;7.622;2022-08-18T00:41:31;94904.44;;;20.28;60.22
30744;BME280;17486;46.738;7.622;2022-08-18T00:43:57;94895.44;;;20.21;60.29
30744;BME280;17486;46.738;7.622;2022-08-18T00:46:31;94846.34;;;19.91;60.02
30744;BME280;17486;46.738;7.622;2022-08-18T00:48:58;94931.53;;;20.30;59.95
30744;BME280;17486;46.738;7.622;2022-08-18T00:51:34;94918.78;;;20.26;59.99
30744;BME280;17486;46.738;7.622;2022-08-18T00:56:56;94919.09;;;20.13;59.64
30744;BME280;17486;46.738;7.622;2022-08-18T01:02:03;94946.19;;;20.15;58.99
30744;BME280;17486;46.738;7.622;2022-08-18T01:04:35;94886.34;;;19.76;59.98
30744;BME280;17486;46.738;7.622;2022-08-18T01:07:25;94933.00;;;20.05;60.43
30744;BME280;17486;46.738;7.622;2022-08-18T01:09:54;94939.38;;;20.12;60.51
30744;BME280;17486;46.738;7.622;2022-08-18T01:12:20;94896.91;;;19.86;60.30
30744;BME280;17486;46.738;7.622;2022-08-18T01:14:46;94929.53;;;20.04;60.67
30744;BME280;17486;46.738;7.622;2022-08-18T01:17:12;94892.31;;;19.78;60.80
30744;BME280;17486;46.738;7.622;2022-08-18T01:19:57;94947.31;;;20.12;60.68
30744;BME280;17486;46.738;7.622;2022-08-18T01:25:14;94890.25;;;19.62;61.18
30744;BME280;17486;46.738;7.622;2022-08-18T01:27:58;94945.53;;;19.93;61.32
30744;BME280;17486;46.738;7.622;2022-08-18T01:30:29;94946.34;;;19.94;61.42
30744;BME280;17486;46.738;7.622;2022-08-18T01:32:55;94947.19;;;19.94;61.89
30744;BME280;17486;46.738;7.622;2022-08-18T01:35:22;94937.19;;;19.88;61.97
30744;BME280;17486;46.738;7.622;2022-08-18T01:37:50;94915.38;;;19.76;61.96
30744;BME280;17486;46.738;7.622;2022-08-18T01:40:19;94943.59;;;19.85;62.17
30744;BME280;17486;46.738;7.622;2022-08-18T01:42:44;94939.94;;;19.77;62.25
30744;BME280;17486;46.738;7.622;2022-08-18T01:45:15;94895.13;;;19.47;62.16
30744;BME280;17486;46.738;7.622;2022-08-18T01:47:42;94878.59;;;19.35;62.51
30744;BME280;17486;46.738;7.622;2022-08-18T01:50:08;94892.47;;;19.37;62.83
30744;BME280;17486;46.738;7.622;2022-08-18T01:52:38;94932.59;;;19.61;62.89
30744;BME280;17486;46.738;7.622;2022-08-18T01:55:04;94938.72;;;19.61;63.19
30744;BME280;17486;46.738;7.622;2022-08-18T01:57:32;94944.53;;;19.65;63.12
30744;BME280;17486;46.738;7.622;2022-08-18T01:59:57;94951.91;;;19.71;63.31
30744;BME280;17486;46.738;7.622;2022-08-18T02:02:27;94946.34;;;19.74;63.27
30744;BME280;17486;46.738;7.622;2022-08-18T02:05:00;94931.34;;;19.75;63.21
30744;BME280;17486;46.738;7.622;2022-08-18T02:07:26;94921.91;;;19.72;63.28
30744;BME280;17486;46.738;7.622;2022-08-18T02:09:52;94916.47;;;19.74;63.19
30744;BME280;17486;46.738;7.622;2022-08-18T02:12:17;94934.28;;;19.81;63.31
30744;BME280;17486;46.738;7.622;2022-08-18T02:14:43;94936.78;;;19.83;63.28
30744;BME280;17486;46.738;7.622;2022-08-18T02:17:11;94943.72;;;19.84;63.39
30744;BME280;17486;46.738;7.622;2022-08-18T02:19:42;94885.53;;;19.56;63.39
30744;BME280;17486;46.738;7.622;2022-08-18T02:22:09;94923.84;;;19.80;63.31
30744;BME280;17486;46.738;7.622;2022-08-18T02:24:36;94847.50;;;19.29;63.48
30744;BME280;17486;46.738;7.622;2022-08-18T02:27:02;94854.59;;;19.29;63.77
30744;BME280;17486;46.738;7.622;2022-08-18T02:29:27;94893.88;;;19.51;63.84
30744;BME280;17486;46.738;7.622;2022-08-18T02:31:53;94852.66;;;19.21;63.98
30744;BME280;17486;46.738;7.622;2022-08-18T02:34:19;94905.81;;;19.46;64.28
30744;BME280;17486;46.738;7.622;2022-08-18T02:36:44;94885.38;;;19.48;64.16
30744;BME280;17486;46.738;7.622;2022-08-18T02:39:10;94884.44;;;19.49;64.05
30744;BME280;17486;46.738;7.622;2022-08-18T02:41:36;94868.31;;;19.52;64.00
30744;BME280;17486;46.738;7.622;2022-08-18T02:44:02;94813.38;;;19.28;64.04
30744;BME280;17486;46.738;7.622;2022-08-18T02:46:28;94791.88;;;19.22;64.30
30744;BME280;17486;46.738;7.622;2022-08-18T02:48:54;94774.25;;;19.23;64.03
30744;BME280;17486;46.738;7.622;2022-08-18T02:51:21;94832.34;;;19.61;63.83
30744;BME280;17486;46.738;7.622;2022-08-18T02:53:47;94808.78;;;19.49;63.60
30744;BME280;17486;46.738;7.622;2022-08-18T02:56:23;94756.78;;;19.22;63.64
30744;BME280;17486;46.738;7.622;2022-08-18T02:58:51;94737.09;;;19.07;63.65
30744;BME280;17486;46.738;7.622;2022-08-18T03:01:21;94794.63;;;19.41;63.69
30744;BME280;17486;46.738;7.622;2022-08-18T03:03:48;94766.75;;;19.38;63.68
30744;BME280;17486;46.738;7.622;2022-08-18T03:06:14;94693.00;;;18.99;63.63
30744;BME280;17486;46.738;7.622;2022-08-18T03:08:41;94792.25;;;19.47;63.75
30744;BME280;17486;46.738;7.622;2022-08-18T03:11:07;94777.25;;;19.48;63.44
30744;BME280;17486;46.738;7.622;2022-08-18T03:13:32;94781.66;;;19.57;63.68
30744;BME280;17486;46.738;7.622;2022-08-18T03:15:57;94708.91;;;19.17;63.58
30744;BME280;17486;46.738;7.622;2022-08-18T03:18:24;94770.28;;;19.57;63.53
30744;BME280;17486;46.738;7.622;2022-08-18T03:20:49;94798.34;;;19.58;63.32
30744;BME280;17486;46.738;7.622;2022-08-18T03:23:15;94800.06;;;19.19;63.50
30744;BME280;17486;46.738;7.622;2022-08-18T03:25:46;94866.94;;;19.58;63.45
30744;BME280;17486;46.738;7.622;2022-08-18T03:28:13;94848.47;;;19.58;63.32
30744;BME280;17486;46.738;7.622;2022-08-18T03:30:39;94844.16;;;19.57;63.38
30744;BME280;17486;46.738;7.622;2022-08-18T03:33:05;94847.78;;;19.46;63.39
30744;BME280;17486;46.738;7.622;2022-08-18T03:35:30;94793.69;;;19.12;63.39
30744;BME280;17486;46.738;7.622;2022-08-18T03:37:59;94839.47;;;19.41;63.50
30744;BME280;17486;46.738;7.622;2022-08-18T03:40:24;94853.06;;;19.46;63.51
30744;BME280;17486;46.738;7.622;2022-08-18T03:42:50;94866.41;;;19.44;63.63
30744;BME280;17486;46.738;7.622;2022-08-18T03:45:15;94856.81;;;19.33;63.79
30744;BME280;17486;46.738;7.622;2022-08-18T03:47:41;94841.00;;;19.24;63.77
30744;BME280;17486;46.738;7.622;2022-08-18T03:50:07;94805.59;;;18.87;64.04
30744;BME280;17486;46.738;7.622;2022-08-18T03:52:32;94820.16;;;18.81;64.57
30744;BME280;17486;46.738;7.622;2022-08-18T03:54:58;94803.06;;;18.56;64.79
30744;BME280;17486;46.738;7.622;2022-08-18T03:57:24;94874.41;;;18.94;65.12
30744;BME280;17486;46.738;7.622;2022-08-18T03:59:49;94876.22;;;18.93;65.27
30744;BME280;17486;46.738;7.622;2022-08-18T04:02:14;94875.22;;;18.84;65.35
30744;BME280;17486;46.738;7.622;2022-08-18T04:04:40;94894.69;;;18.93;65.63
30744;BME280;17486;46.738;7.622;2022-08-18T04:07:09;94878.41;;;18.88;65.79
30744;BME280;17486;46.738;7.622;2022-08-18T04:09:37;94837.31;;;18.66;65.56
30744;BME280;17486;46.738;7.622;2022-08-18T04:12:08;94891.91;;;19.04;65.36
30744;BME280;17486;46.738;7.622;2022-08-18T04:14:37;94840.53;;;18.69;65.16
30744;BME280;17486;46.738;7.622;2022-08-18T04:17:04;94857.72;;;18.83;65.12
30744;BME280;17486;46.738;7.622;2022-08-18T04:19:30;94840.81;;;18.76;64.89
30744;BME280;17486;46.738;7.622;2022-08-18T04:21:58;94896.50;;;19.12;64.82
30744;BME280;17486;46.738;7.622;2022-08-18T04:24:26;94897.75;;;19.18;64.62
30744;BME280;17486;46.738;7.622;2022-08-18T04:26:54;94880.69;;;19.12;64.70
30744;BME280;17486;46.738;7.622;2022-08-18T04:29:21;94884.41;;;19.10;64.50
30744;BME280;17486;46.738;7.622;2022-08-18T04:31:47;94908.69;;;19.23;64.60
30744;BME280;17486;46.738;7.622;2022-08-18T04:34:13;94864.84;;;18.93;64.63
30744;BME280;17486;46.738;7.622;2022-08-18T04:36:42;94841.63;;;18.77;64.72
30744;BME280;17486;46.738;7.622;2022-08-18T04:39:09;94845.50;;;18.82;64.70
30744;BME280;17486;46.738;7.622;2022-08-18T04:41:36;94857.78;;;18.93;64.57
30744;BME280;17486;46.738;7.622;2022-08-18T04:44:05;94899.56;;;19.17;64.50
30744;BME280;17486;46.738;7.622;2022-08-18T04:46:37;94894.00;;;19.11;64.75
30744;BME280;17486;46.738;7.622;2022-08-18T04:49:04;94831.38;;;18.73;64.75
30744;BME280;17486;46.738;7.622;2022-08-18T04:51:30;94849.97;;;18.82;64.56
30744;BME280;17486;46.738;7.622;2022-08-18T04:53:56;94845.22;;;18.76;64.51
30744;BME280;17486;46.738;7.622;2022-08-18T04:56:37;94845.22;;;18.76;64.60
30744;BME280;17486;46.738;7.622;2022-08-18T04:59:09;94924.13;;;19.18;64.51
30744;BME280;17486;46.738;7.622;2022-08-18T05:01:37;94859.78;;;18.80;64.57
30744;BME280;17486;46.738;7.622;2022-08-18T05:04:04;94866.72;;;18.81;64.44
30744;BME280;17486;46.738;7.622;2022-08-18T05:06:30;94845.50;;;18.72;64.75
30744;BME280;17486;46.738;7.622;2022-08-18T05:09:01;94912.88;;;19.16;64.40
30744;BME280;17486;46.738;7.622;2022-08-18T05:11:28;94903.84;;;19.09;64.28
30744;BME280;17486;46.738;7.622;2022-08-18T05:13:57;94914.13;;;19.12;64.25
30744;BME280;17486;46.738;7.622;2022-08-18T05:16:23;94867.44;;;18.83;64.18
30744;BME280;17486;46.738;7.622;2022-08-18T05:18:50;94914.41;;;19.18;64.36
30744;BME280;17486;46.738;7.622;2022-08-18T05:21:18;94919.25;;;19.13;64.28
30744;BME280;17486;46.738;7.622;2022-08-18T05:23:45;94902.19;;;19.08;64.23
30744;BME280;17486;46.738;7.622;2022-08-18T05:26:12;94936.06;;;19.22;64.07
30744;BME280;17486;46.738;7.622;2022-08-18T05:28:43;94952.13;;;19.19;64.30
30744;BME280;17486;46.738;7.622;2022-08-18T05:31:10;94953.00;;;19.19;64.36
30744;BME280;17486;46.738;7.622;2022-08-18T05:33:37;94893.78;;;18.83;64.33
30744;BME280;17486;46.738;7.622;2022-08-18T05:36:21;94884.22;;;18.82;64.24
30744;BME280;17486;46.738;7.622;2022-08-18T05:39:19;94947.28;;;19.24;64.32
30744;BME280;17486;46.738;7.622;2022-08-18T05:41:51;94950.50;;;19.28;64.11
30744;BME280;17486;46.738;7.622;2022-08-18T05:44:19;94951.06;;;19.31;63.91
30744;BME280;17486;46.738;7.622;2022-08-18T05:46:51;94876.91;;;18.95;64.23
30744;BME280;17486;46.738;7.622;2022-08-18T05:49:18;94924.25;;;19.36;64.03
30744;BME280;17486;46.738;7.622;2022-08-18T05:51:47;94874.97;;;19.07;64.17
30744;BME280;17486;46.738;7.622;2022-08-18T05:54:14;94859.31;;;19.05;64.02
30744;BME280;17486;46.738;7.622;2022-08-18T05:57:03;94923.72;;;19.42;64.01
30744;BME280;17486;46.738;7.622;2022-08-18T05:59:36;94925.81;;;19.48;64.09
30744;BME280;17486;46.738;7.622;2022-08-18T06:02:12;94901.38;;;19.36;64.20
30744;BME280;17486;46.738;7.622;2022-08-18T06:04:52;94903.84;;;19.48;63.83
30744;BME280;17486;46.738;7.622;2022-08-18T06:07:42;94901.91;;;19.60;63.90
30744;BME280;17486;46.738;7.622;2022-08-18T06:10:09;94904.25;;;19.72;63.53
30744;BME280;17486;46.738;7.622;2022-08-18T06:12:44;94898.56;;;19.77;63.64
30744;BME280;17486;46.738;7.622;2022-08-18T06:15:41;94911.22;;;19.93;63.24
30744;BME280;17486;46.738;7.622;2022-08-18T06:23:41;94928.88;;;19.93;62.90
30744;BME280;17486;46.738;7.622;2022-08-18T06:29:00;94935.50;;;20.07;62.67
30744;BME280;17486;46.738;7.622;2022-08-18T06:39:16;94858.28;;;19.75;62.28
30744;BME280;17486;46.738;7.622;2022-08-18T06:41:47;94919.19;;;20.21;62.25
30744;BME280;17486;46.738;7.622;2022-08-18T06:44:24;94920.44;;;20.27;61.99
30744;BME280;17486;46.738;7.622;2022-08-18T06:46:55;94874.22;;;20.03;61.02
30744;BME280;17486;46.738;7.622;2022-08-18T06:51:58;94879.72;;;20.19;61.76
30744;BME280;17486;46.738;7.622;2022-08-18T06:54:41;94921.50;;;20.44;61.55
30744;BME280;17486;46.738;7.622;2022-08-18T06:57:22;94922.63;;;20.41;61.54
30744;BME280;17486;46.738;7.622;2022-08-18T06:59:55;94936.81;;;20.40;61.27
30744;BME280;17486;46.738;7.622;2022-08-18T07:05:07;94953.19;;;20.44;61.99
30744;BME280;17486;46.738;7.622;2022-08-18T07:07:38;94927.59;;;20.44;61.05
30744;BME280;17486;46.738;7.622;2022-08-18T07:10:30;94895.94;;;20.34;60.90
30744;BME280;17486;46.738;7.622;2022-08-18T07:15:32;94884.78;;;20.41;60.99
30744;BME280;17486;46.738;7.622;2022-08-18T07:18:05;94880.09;;;20.34;61.03
30744;BME280;17486;46.738;7.622;2022-08-18T07:20:42;94927.38;;;20.65;60.44
30744;BME280;17486;46.738;7.622;2022-08-18T07:23:08;94880.59;;;20.48;60.01
30744;BME280;17486;46.738;7.622;2022-08-18T07:25:45;94916.09;;;20.73;60.04
30744;BME280;17486;46.738;7.622;2022-08-18T07:30:52;94936.91;;;20.86;59.21
30744;BME280;17486;46.738;7.622;2022-08-18T07:33:32;94910.47;;;20.86;58.98
30744;BME280;17486;46.738;7.622;2022-08-18T07:36:00;94844.59;;;20.47;58.89
30744;BME280;17486;46.738;7.622;2022-08-18T07:38:37;94855.81;;;20.49;58.84
30744;BME280;17486;46.738;7.622;2022-08-18T07:41:27;94915.19;;;20.92;58.90
30744;BME280;17486;46.738;7.622;2022-08-18T07:47:03;94923.59;;;21.06;57.65
30744;BME280;17486;46.738;7.622;2022-08-18T07:49:33;94910.06;;;21.09;56.90
30744;BME280;17486;46.738;7.622;2022-08-18T07:52:07;94907.81;;;21.14;56.44
30744;BME280;17486;46.738;7.622;2022-08-18T07:55:15;94896.31;;;21.23;56.26
30744;BME280;17486;46.738;7.622;2022-08-18T07:57:52;94880.16;;;21.26;55.90
30744;BME280;17486;46.738;7.622;2022-08-18T08:00:23;94895.84;;;21.46;55.54
30744;BME280;17486;46.738;7.622;2022-08-18T08:08:36;94836.56;;;21.30;55.15
30744;BME280;17486;46.738;7.622;2022-08-18T08:11:36;94908.56;;;21.78;55.24
30744;BME280;17486;46.738;7.622;2022-08-18T08:22:29;94941.97;;;22.15;54.81
30744;BME280;17486;46.738;7.622;2022-08-18T08:25:40;94935.19;;;22.21;54.12
30744;BME280;17486;46.738;7.622;2022-08-18T08:28:09;94922.31;;;22.26;54.36
30744;BME280;17486;46.738;7.622;2022-08-18T08:30:47;94913.69;;;22.24;53.85
30744;BME280;17486;46.738;7.622;2022-08-18T08:33:25;94901.16;;;22.34;54.22
30744;BME280;17486;46.738;7.622;2022-08-18T08:36:00;94904.56;;;22.45;54.12
30744;BME280;17486;46.738;7.622;2022-08-18T08:38:50;94896.00;;;22.51;54.20
30744;BME280;17486;46.738;7.622;2022-08-18T08:44:37;94893.75;;;22.73;53.16
30744;BME280;17486;46.738;7.622;2022-08-18T08:47:17;94839.00;;;22.47;53.11
30744;BME280;17486;46.738;7.622;2022-08-18T08:49:51;94840.69;;;22.56;53.17
30744;BME280;17486;46.738;7.622;2022-08-18T08:52:23;94827.78;;;22.61;52.50
30744;BME280;17486;46.738;7.622;2022-08-18T09:00:38;94800.81;;;22.91;51.05
30744;BME280;17486;46.738;7.622;2022-08-18T09:19:03;94872.41;;;23.83;48.85
30744;BME280;17486;46.738;7.622;2022-08-18T09:21:45;94796.06;;;23.35;48.76
30744;BME280;17486;46.738;7.622;2022-08-18T09:24:23;94870.41;;;23.68;48.95
30744;BME280;17486;46.738;7.622;2022-08-18T09:37:57;94790.97;;;23.17;50.16
30744;BME280;17486;46.738;7.622;2022-08-18T09:40:59;94774.47;;;23.06;50.23
30744;BME280;17486;46.738;7.622;2022-08-18T09:43:53;94833.41;;;23.26;50.51
30744;BME280;17486;46.738;7.622;2022-08-18T09:51:46;94827.88;;;23.02;50.44
30744;BME280;17486;46.738;7.622;2022-08-18T09:54:15;94847.94;;;23.13;50.52
30744;BME280;17486;46.738;7.622;2022-08-18T10:02:03;94855.78;;;23.40;50.85
30744;BME280;17486;46.738;7.622;2022-08-18T10:04:41;94809.34;;;23.19;51.12
30744;BME280;17486;46.738;7.622;2022-08-18T10:10:11;94845.03;;;23.49;50.65
30744;BME280;17486;46.738;7.622;2022-08-18T10:16:02;94838.53;;;23.35;50.38
30744;BME280;17486;46.738;7.622;2022-08-18T10:18:56;94849.97;;;23.28;50.38
30744;BME280;17486;46.738;7.622;2022-08-18T10:21:29;94785.44;;;22.94;50.51
30744;BME280;17486;46.738;7.622;2022-08-18T10:24:16;94773.47;;;22.82;50.76
30744;BME280;17486;46.738;7.622;2022-08-18T10:29:10;94831.03;;;23.06;50.79
30744;BME280;17486;46.738;7.622;2022-08-18T10:34:41;94822.22;;;22.89;51.14
30744;BME280;17486;46.738;7.622;2022-08-18T10:43:00;94740.59;;;22.42;51.77
30744;BME280;17486;46.738;7.622;2022-08-18T10:45:43;94795.69;;;22.81;51.84
30744;BME280;17486;46.738;7.622;2022-08-18T10:50:42;94797.19;;;22.92;52.04
30744;BME280;17486;46.738;7.622;2022-08-18T10:53:57;94788.25;;;23.09;51.94
30744;BME280;17486;46.738;7.622;2022-08-18T10:56:50;94781.66;;;23.22;51.85
30744;BME280;17486;46.738;7.622;2022-08-18T10:59:36;94783.81;;;23.34;51.13
30744;BME280;17486;46.738;7.622;2022-08-18T11:04:52;94788.44;;;23.41;50.63
30744;BME280;17486;46.738;7.622;2022-08-18T11:07:26;94720.13;;;22.93;50.51
30744;BME280;17486;46.738;7.622;2022-08-18T11:09:55;94784.13;;;23.31;50.60
30744;BME280;17486;46.738;7.622;2022-08-18T11:12:50;94789.63;;;23.22;50.91
30744;BME280;17486;46.738;7.622;2022-08-18T11:15:23;94777.31;;;23.12;51.07
30744;BME280;17486;46.738;7.622;2022-08-18T11:18:33;94794.41;;;23.10;51.05
30744;BME280;17486;46.738;7.622;2022-08-18T11:21:32;94800.69;;;23.00;51.25
30744;BME280;17486;46.738;7.622;2022-08-18T11:24:07;94797.19;;;22.83;51.49
30744;BME280;17486;46.738;7.622;2022-08-18T11:26:37;94806.94;;;22.83;51.65
30744;BME280;17486;46.738;7.622;2022-08-18T11:29:30;94728.28;;;22.32;51.93
30744;BME280;17486;46.738;7.622;2022-08-18T11:32:48;94795.47;;;22.66;52.00
30744;BME280;17486;46.738;7.622;2022-08-18T11:37:46;94795.13;;;22.61;52.19
30744;BME280;17486;46.738;7.622;2022-08-18T11:48:45;94800.31;;;22.71;52.21
30744;BME280;17486;46.738;7.622;2022-08-18T11:56:14;94818.69;;;22.72;51.56
30744;BME280;17486;46.738;7.622;2022-08-18T11:58:52;94803.44;;;22.66;51.92
30744;BME280;17486;46.738;7.622;2022-08-18T12:09:42;94804.47;;;22.81;51.85
30744;BME280;17486;46.738;7.622;2022-08-18T12:12:28;94807.63;;;22.85;51.65
30744;BME280;17486;46.738;7.622;2022-08-18T12:17:24;94808.44;;;22.85;51.74
30744;BME280;17486;46.738;7.622;2022-08-18T12:19:50;94728.00;;;22.44;51.74
30744;BME280;17486;46.738;7.622;2022-08-18T12:22:23;94797.03;;;22.85;51.56
30744;BME280;17486;46.738;7.622;2022-08-18T12:24:50;94744.59;;;22.54;51.89
30744;BME280;17486;46.738;7.622;2022-08-18T12:27:18;94798.34;;;22.89;51.56
30744;BME280;17486;46.738;7.622;2022-08-18T12:29:44;94733.50;;;22.59;51.46
30744;BME280;17486;46.738;7.622;2022-08-18T12:32:11;94805.66;;;23.04;51.43
30744;BME280;17486;46.738;7.622;2022-08-18T12:34:37;94795.06;;;23.04;51.01
30744;BME280;17486;46.738;7.622;2022-08-18T12:37:03;94717.59;;;22.59;51.03
30744;BME280;17486;46.738;7.622;2022-08-18T12:39:30;94793.38;;;23.02;51.09
30744;BME280;17486;46.738;7.622;2022-08-18T12:41:56;94735.84;;;22.70;50.95
30744;BME280;17486;46.738;7.622;2022-08-18T12:44:23;94801.06;;;23.14;50.94
30744;BME280;17486;46.738;7.622;2022-08-18T12:46:49;94740.47;;;22.84;51.84
30744;BME280;17486;46.738;7.622;2022-08-18T12:49:20;94791.13;;;23.32;51.28
30744;BME280;17486;46.738;7.622;2022-08-18T12:51:46;94724.78;;;23.16;51.36
30744;BME280;17486;46.738;7.622;2022-08-18T12:54:12;94750.97;;;23.52;50.58
30744;BME280;17486;46.738;7.622;2022-08-18T12:56:39;94786.72;;;23.89;50.03
30744;BME280;17486;46.738;7.622;2022-08-18T12:59:06;94713.75;;;23.60;48.92
30744;BME280;17486;46.738;7.622;2022-08-18T13:01:33;94704.81;;;23.61;48.63
30744;BME280;17486;46.738;7.622;2022-08-18T13:03:59;94722.38;;;23.71;48.03
30744;BME280;17486;46.738;7.622;2022-08-18T13:06:25;94703.81;;;23.62;48.03
30744;BME280;17486;46.738;7.622;2022-08-18T13:08:51;94719.72;;;23.71;47.89
30744;BME280;17486;46.738;7.622;2022-08-18T13:11:20;94797.97;;;24.08;47.38
30744;BME280;17486;46.738;7.622;2022-08-18T13:13:45;94781.09;;;24.00;47.90
30744;BME280;17486;46.738;7.622;2022-08-18T13:16:11;94711.78;;;23.62;47.48
30744;BME280;17486;46.738;7.622;2022-08-18T13:18:38;94779.41;;;23.99;47.17
30744;BME280;17486;46.738;7.622;2022-08-18T13:21:06;94773.94;;;24.01;47.22
30744;BME280;17486;46.738;7.622;2022-08-18T13:23:32;94736.31;;;23.73;47.49
30744;BME280;17486;46.738;7.622;2022-08-18T13:25:59;94767.84;;;23.92;47.71
30744;BME280;17486;46.738;7.622;2022-08-18T13:28:25;94787.22;;;24.01;47.84
30744;BME280;17486;46.738;7.622;2022-08-18T13:30:50;94724.72;;;23.65;47.56
30744;BME280;17486;46.738;7.622;2022-08-18T13:33:16;94766.16;;;23.91;47.51
30744;BME280;17486;46.738;7.622;2022-08-18T13:35:43;94787.06;;;23.94;47.61
30744;BME280;17486;46.738;7.622;2022-08-18T13:38:09;94716.94;;;23.56;47.77
30744;BME280;17486;46.738;7.622;2022-08-18T13:40:36;94785.09;;;23.96;47.17
30744;BME280;17486;46.738;7.622;2022-08-18T13:43:02;94791.06;;;23.90;46.95
30744;BME280;17486;46.738;7.622;2022-08-18T13:45:28;94783.78;;;23.92;46.67
30744;BME280;17486;46.738;7.622;2022-08-18T13:47:53;94779.44;;;23.91;46.59
30744;BME280;17486;46.738;7.622;2022-08-18T13:50:19;94734.00;;;23.61;46.88
30744;BME280;17486;46.738;7.622;2022-08-18T13:52:45;94768.16;;;23.81;47.00
30744;BME280;17486;46.738;7.622;2022-08-18T13:55:14;94708.66;;;23.50;47.12
30744;BME280;17486;46.738;7.622;2022-08-18T13:57:41;94778.78;;;23.97;47.08
30744;BME280;17486;46.738;7.622;2022-08-18T14:00:15;94720.25;;;23.66;46.81
30744;BME280;17486;46.738;7.622;2022-08-18T14:02:41;94795.38;;;23.99;46.24
30744;BME280;17486;46.738;7.622;2022-08-18T14:05:08;94714.75;;;23.59;45.97
30744;BME280;17486;46.738;7.622;2022-08-18T14:07:34;94773.44;;;23.89;46.40
30744;BME280;17486;46.738;7.622;2022-08-18T14:10:02;94785.72;;;23.98;46.20
30744;BME280;17486;46.738;7.622;2022-08-18T14:12:28;94762.00;;;23.89;46.06
30744;BME280;17486;46.738;7.622;2022-08-18T14:14:54;94777.94;;;23.89;46.03
30744;BME280;17486;46.738;7.622;2022-08-18T14:17:21;94781.59;;;23.88;46.24
30744;BME280;17486;46.738;7.622;2022-08-18T14:19:46;94749.09;;;23.69;46.06
30744;BME280;17486;46.738;7.622;2022-08-18T14:22:30;94733.38;;;23.51;46.43
30744;BME280;17486;46.738;7.622;2022-08-18T14:25:15;94812.31;;;23.90;46.28
30744;BME280;17486;46.738;7.622;2022-08-18T14:27:59;94739.84;;;23.48;46.37
30744;BME280;17486;46.738;7.622;2022-08-18T14:30:24;94756.59;;;23.57;46.58
30744;BME280;17486;46.738;7.622;2022-08-18T14:32:50;94803.00;;;23.86;46.69
30744;BME280;17486;46.738;7.622;2022-08-18T14:35:18;94748.78;;;23.47;46.76
30744;BME280;17486;46.738;7.622;2022-08-18T14:37:44;94766.53;;;23.55;46.70
30744;BME280;17486;46.738;7.622;2022-08-18T14:40:10;94812.50;;;23.80;46.82
30744;BME280;17486;46.738;7.622;2022-08-18T14:42:36;94811.63;;;23.80;46.82
30744;BME280;17486;46.738;7.622;2022-08-18T14:45:03;94827.91;;;23.77;46.73
30744;BME280;17486;46.738;7.622;2022-08-18T14:47:30;94819.28;;;23.75;46.63
30744;BME280;17486;46.738;7.622;2022-08-18T14:49:57;94814.47;;;23.62;46.28
30744;BME280;17486;46.738;7.622;2022-08-18T14:52:25;94757.28;;;23.26;46.34
30744;BME280;17486;46.738;7.622;2022-08-18T14:54:52;94834.06;;;23.69;46.37
30744;BME280;17486;46.738;7.622;2022-08-18T14:57:17;94773.34;;;23.33;46.45
30744;BME280;17486;46.738;7.622;2022-08-18T14:59:43;94825.09;;;23.62;46.74
30744;BME280;17486;46.738;7.622;2022-08-18T15:02:09;94768.41;;;23.22;47.17
30744;BME280;17486;46.738;7.622;2022-08-18T15:04:36;94784.78;;;23.25;47.30
30744;BME280;17486;46.738;7.622;2022-08-18T15:07:02;94784.97;;;23.24;47.89
30744;BME280;17486;46.738;7.622;2022-08-18T15:09:28;94847.50;;;23.59;48.13
30744;BME280;17486;46.738;7.622;2022-08-18T15:11:57;94854.16;;;23.63;48.75
30744;BME280;17486;46.738;7.622;2022-08-18T15:14:25;94811.53;;;23.32;49.41
30744;BME280;17486;46.738;7.622;2022-08-18T15:16:51;94861.94;;;23.57;49.81
30744;BME280;17486;46.738;7.622;2022-08-18T15:19:17;94867.59;;;23.54;50.38
30744;BME280;17486;46.738;7.622;2022-08-18T15:21:42;94811.13;;;23.10;51.26
30744;BME280;17486;46.738;7.622;2022-08-18T15:24:26;94872.22;;;23.43;52.26
30744;BME280;17486;46.738;7.622;2022-08-18T15:27:10;94873.38;;;23.32;53.32
30744;BME280;17486;46.738;7.622;2022-08-18T15:29:36;94866.41;;;23.15;54.10
30744;BME280;17486;46.738;7.622;2022-08-18T15:32:01;94874.81;;;23.10;54.52
30744;BME280;17486;46.738;7.622;2022-08-18T15:34:27;94868.97;;;22.90;54.89
30744;BME280;17486;46.738;7.622;2022-08-18T15:36:54;94871.91;;;22.87;54.95
30744;BME280;17486;46.738;7.622;2022-08-18T15:39:21;94806.31;;;22.38;55.30
30744;BME280;17486;46.738;7.622;2022-08-18T15:41:46;94834.50;;;22.47;56.06
30744;BME280;17486;46.738;7.622;2022-08-18T15:44:20;94888.59;;;22.63;56.34
30744;BME280;17486;46.738;7.622;2022-08-18T15:46:46;94867.28;;;22.46;56.96